»·PEaware :: QXE2414 KRDM-KSEA

QXE2414 :: KRDM-KSEA

FLIGHT INFORMATION

Flight Status: Arrived
Operator:
Horizon Air
More flights by this operator :: More flights under this callsign
Pilot: Adlai G. (28854)
Aircraft: DEHAVILLAND DASH 8 400
(DH8D)
More flights by this aircraft type
Origin: KRDM Roberts
United States
Destination: KSEA Seattle-Tacoma Intl
United States
More flights between these airports :: More routes between these airports
Route: BTG KRIEG HAWKZ7
File this flight plan on PilotEdge
Remarks:
Altitude:
(Current/Filed)
24,000ft
Speed:
(Current/Filed)
362kts
Departed: 10-Feb-21 04:25 PM
Arrived: 10-Feb-21 05:21 PM
Distance/Time
Traveled:
198nm/0:56
Distance/Time
To Go:
Arrived

Flight Plot

Page will automatically refresh every two minutes.

Flight plan parsing failed; only flown route is shown


Map Options




Map Legend


Flown Route
Filed Route
Departure Airport
Arrival Airport
Navaid (VOR, NDB)
Fix

Horizontal Profiles

Position Reports

Time Latitude Longitude Heading Altitude Ground
Speed
10-Feb-21 15:38 44.258868 -121.156598 30 3084ft 0kts
10-Feb-21 15:39 44.258868 -121.156598 30 3084ft 0kts
10-Feb-21 15:40 44.258868 -121.156598 30 3084ft 0kts
10-Feb-21 15:41 44.258868 -121.156598 30 3084ft 0kts
10-Feb-21 15:42 44.258868 -121.156598 30 3084ft 0kts
10-Feb-21 15:43 44.258868 -121.156598 30 3084ft 0kts
10-Feb-21 15:44 44.258868 -121.156598 30 3084ft 0kts
10-Feb-21 15:45 44.258868 -121.156598 30 3084ft 0kts
10-Feb-21 15:46 44.258868 -121.156598 30 3084ft 0kts
10-Feb-21 15:47 44.258868 -121.156598 30 3084ft 0kts
10-Feb-21 15:48 44.258868 -121.156598 30 3084ft 0kts
10-Feb-21 15:49 44.258868 -121.156598 30 3084ft 0kts
10-Feb-21 15:50 44.258868 -121.156598 30 3084ft 0kts
10-Feb-21 15:51 44.258868 -121.156598 30 3084ft 0kts
10-Feb-21 15:52 44.258868 -121.156598 30 3084ft 0kts
10-Feb-21 15:53 44.258868 -121.156598 30 3084ft 0kts
10-Feb-21 15:54 44.258868 -121.156598 30 3084ft 0kts
10-Feb-21 15:55 44.258868 -121.156598 30 3084ft 0kts
10-Feb-21 15:56 44.258868 -121.156598 30 3084ft 0kts
10-Feb-21 15:57 44.258868 -121.156598 30 3084ft 0kts
10-Feb-21 15:58 44.258868 -121.156598 30 3084ft 0kts
10-Feb-21 15:59 44.258868 -121.156598 30 3084ft 0kts
10-Feb-21 16:00 44.258868 -121.156598 30 3084ft 0kts
10-Feb-21 16:01 44.258868 -121.156598 30 3084ft 0kts
10-Feb-21 16:02 44.258868 -121.156598 30 3084ft 0kts
10-Feb-21 16:03 44.258868 -121.156598 30 3084ft 0kts
10-Feb-21 16:04 44.258868 -121.156598 30 3084ft 0kts
10-Feb-21 16:05 44.258868 -121.156598 30 3084ft 0kts
10-Feb-21 16:06 44.258868 -121.156598 30 3084ft 0kts
10-Feb-21 16:07 44.258868 -121.156598 30 3084ft 0kts
10-Feb-21 16:08 44.258868 -121.156598 30 3084ft 0kts
10-Feb-21 16:09 44.258868 -121.156598 30 3084ft 0kts
10-Feb-21 16:10 44.258868 -121.156598 30 3084ft 0kts
10-Feb-21 16:11 44.258810 -121.156646 31 3084ft 2kts
10-Feb-21 16:13 44.258281 -121.157403 94 3084ft 3kts
10-Feb-21 16:14 44.258374 -121.157689 120 3084ft 0kts
10-Feb-21 16:15 44.258374 -121.157689 120 3084ft 0kts
10-Feb-21 16:16 44.258374 -121.157689 120 3084ft 0kts
10-Feb-21 16:17 44.258374 -121.157689 120 3084ft 0kts
10-Feb-21 16:18 44.258357 -121.157650 121 3084ft 0kts
10-Feb-21 16:19 44.257419 -121.155508 121 3084ft 0kts
10-Feb-21 16:20 44.255961 -121.152096 120 3084ft 19kts
10-Feb-21 16:21 44.253842 -121.151205 240 3084ft 20kts
10-Feb-21 16:22 44.251249 -121.146981 121 3084ft 15kts
10-Feb-21 16:23 44.249153 -121.142181 120 3084ft 19kts
10-Feb-21 16:24 44.249040 -121.139059 304 3084ft 5kts
10-Feb-21 16:25 44.260997 -121.165471 302 4026ft 124kts
10-Feb-21 16:25 44.288621 -121.192550 333 5611ft 180kts
10-Feb-21 16:27 44.347627 -121.238292 326 8342ft 224kts
10-Feb-21 16:28 44.400536 -121.286865 324 10782ft 232kts
10-Feb-21 16:28 44.446155 -121.328356 321 12361ft 237kts
10-Feb-21 16:30 44.507207 -121.387394 321 14676ft 224kts
10-Feb-21 16:31 44.559657 -121.437205 322 16137ft 230kts
10-Feb-21 16:31 44.604051 -121.479222 321 17215ft 231kts
10-Feb-21 16:32 44.657666 -121.530079 321 18372ft 232kts
10-Feb-21 16:33 44.706854 -121.576643 321 20391ft 198kts
10-Feb-21 16:34 44.751929 -121.619822 321 21853ft 191kts
10-Feb-21 16:35 44.796280 -121.662103 320 23073ft 191kts
10-Feb-21 16:36 44.840631 -121.704481 320 24076ft 196kts
10-Feb-21 16:37 44.889255 -121.751513 320 24191ft 227kts
10-Feb-21 16:38 44.944276 -121.804920 321 24184ft 250kts
10-Feb-21 16:39 45.003590 -121.861804 321 24179ft 264kts
10-Feb-21 16:40 45.065266 -121.920950 321 24217ft 272kts
10-Feb-21 16:41 45.128122 -121.981945 321 24215ft 277kts
10-Feb-21 16:42 45.191921 -122.044110 321 24215ft 280kts
10-Feb-21 16:43 45.256088 -122.106470 321 24222ft 281kts
10-Feb-21 16:44 45.320575 -122.169584 321 24228ft 282kts
10-Feb-21 16:45 45.385189 -122.232696 321 24232ft 283kts
10-Feb-21 16:46 45.449790 -122.296386 321 24233ft 283kts
10-Feb-21 16:47 45.514728 -122.360362 321 24011ft 282kts
10-Feb-21 16:48 45.579521 -122.424450 321 23017ft 288kts
10-Feb-21 16:49 45.646242 -122.490560 321 22302ft 293kts
10-Feb-21 16:50 45.713353 -122.557194 321 22240ft 293kts
10-Feb-21 16:51 45.789561 -122.600077 342 22243ft 304kts
10-Feb-21 16:52 45.873314 -122.619958 343 22243ft 305kts
10-Feb-21 16:53 45.956845 -122.638751 343 22246ft 305kts
10-Feb-21 16:54 46.040264 -122.657969 343 22245ft 304kts
10-Feb-21 16:55 46.123839 -122.676932 343 22244ft 304kts
10-Feb-21 16:56 46.207285 -122.696158 343 22243ft 303kts
10-Feb-21 16:57 46.290369 -122.715033 342 22241ft 302kts
10-Feb-21 16:58 46.374808 -122.724531 349 22239ft 307kts
10-Feb-21 16:59 46.460071 -122.726898 348 22235ft 306kts
10-Feb-21 17:00 46.544780 -122.730131 348 22234ft 305kts
10-Feb-21 17:01 46.629700 -122.733261 348 21535ft 306kts
10-Feb-21 17:02 46.715182 -122.736769 349 19753ft 312kts
10-Feb-21 17:03 46.801973 -122.715812 21 17940ft 347kts
10-Feb-21 17:04 46.879072 -122.629224 28 15715ft 338kts
10-Feb-21 17:05 46.950476 -122.556580 11 13887ft 290kts
10-Feb-21 17:06 47.025271 -122.524432 9 12426ft 278kts
10-Feb-21 17:07 47.100164 -122.495967 1 11425ft 276kts
10-Feb-21 17:08 47.176004 -122.482934 1 10264ft 274kts
10-Feb-21 17:09 47.249325 -122.471365 2 9256ft 259kts
10-Feb-21 17:10 47.320547 -122.460657 3 8398ft 256kts
10-Feb-21 17:11 47.391740 -122.454658 358 7269ft 257kts
10-Feb-21 17:12 47.461170 -122.455339 358 6142ft 244kts
10-Feb-21 17:13 47.523885 -122.454337 0 5579ft 217kts
10-Feb-21 17:14 47.584014 -122.451306 0 4590ft 215kts
10-Feb-21 17:15 47.619830 -122.400308 94 3570ft 201kts
10-Feb-21 17:16 47.600246 -122.327023 132 2570ft 194kts
10-Feb-21 17:17 47.554347 -122.308158 176 1668ft 150kts
10-Feb-21 17:18 47.516330 -122.306593 182 1389ft 121kts
10-Feb-21 17:19 47.482859 -122.307478 183 831ft 119kts
10-Feb-21 17:20 47.454761 -122.307813 179 440ft 31kts
10-Feb-21 17:21 47.452007 -122.306661 141 440ft 0kts
10-Feb-21 17:22 47.449498 -122.306282 180 440ft 8kts
10-Feb-21 17:23 47.447167 -122.305642 180 440ft 10kts
10-Feb-21 17:24 47.446562 -122.304865 54 440ft 0kts
10-Feb-21 17:25 47.446562 -122.304865 54 440ft 0kts
10-Feb-21 17:26 47.446562 -122.304865 54 440ft 0kts
10-Feb-21 17:27 47.446562 -122.304865 54 440ft 0kts
10-Feb-21 17:28 47.446562 -122.304865 54 440ft 0kts
10-Feb-21 17:29 47.446562 -122.304865 54 440ft 0kts
10-Feb-21 17:30 47.446562 -122.304865 54 440ft 0kts
10-Feb-21 17:31 47.446562 -122.304865 54 440ft 0kts
10-Feb-21 17:32 47.446562 -122.304865 54 440ft 0kts
10-Feb-21 17:33 47.446562 -122.304865 54 440ft 0kts
10-Feb-21 17:34 47.446562 -122.304865 54 440ft 0kts

Navigation Log

Ident Type
Flight plan parsing failed, navigation log unavailable